sensor_id;sensor_type;location;lat;lon;timestamp;P1;durP1;ratioP1;P2;durP2;ratioP2
10061;SDS011;5070;52.382;5.270;2022-07-11T00:00:26;5.25;;;1.92;;
10061;SDS011;5070;52.382;5.270;2022-07-11T00:02:54;10.63;;;1.77;;
10061;SDS011;5070;52.382;5.270;2022-07-11T00:05:21;3.13;;;1.65;;
10061;SDS011;5070;52.382;5.270;2022-07-11T00:07:49;5.95;;;1.60;;
10061;SDS011;5070;52.382;5.270;2022-07-11T00:10:17;6.38;;;2.47;;
10061;SDS011;5070;52.382;5.270;2022-07-11T00:12:45;3.33;;;1.90;;
10061;SDS011;5070;52.382;5.270;2022-07-11T00:15:14;3.83;;;1.63;;
10061;SDS011;5070;52.382;5.270;2022-07-11T00:17:43;5.53;;;1.50;;
10061;SDS011;5070;52.382;5.270;2022-07-11T00:20:11;3.08;;;1.20;;
10061;SDS011;5070;52.382;5.270;2022-07-11T00:22:39;3.15;;;1.25;;
10061;SDS011;5070;52.382;5.270;2022-07-11T00:25:07;2.28;;;1.35;;
10061;SDS011;5070;52.382;5.270;2022-07-11T00:27:36;3.85;;;1.48;;
10061;SDS011;5070;52.382;5.270;2022-07-11T00:30:04;2.58;;;1.55;;
10061;SDS011;5070;52.382;5.270;2022-07-11T00:32:33;5.40;;;1.77;;
10061;SDS011;5070;52.382;5.270;2022-07-11T00:35:03;2.08;;;1.33;;
10061;SDS011;5070;52.382;5.270;2022-07-11T00:37:32;3.65;;;1.33;;
10061;SDS011;5070;52.382;5.270;2022-07-11T00:40:00;2.72;;;1.42;;
10061;SDS011;5070;52.382;5.270;2022-07-11T00:42:28;6.45;;;1.52;;
10061;SDS011;5070;52.382;5.270;2022-07-11T00:44:56;2.60;;;1.10;;
10061;SDS011;5070;52.382;5.270;2022-07-11T00:47:24;3.97;;;2.05;;
10061;SDS011;5070;52.382;5.270;2022-07-11T00:49:52;3.25;;;2.15;;
10061;SDS011;5070;52.382;5.270;2022-07-11T00:52:21;16.48;;;1.63;;
10061;SDS011;5070;52.382;5.270;2022-07-11T00:54:50;3.22;;;2.05;;
10061;SDS011;5070;52.382;5.270;2022-07-11T00:57:18;3.38;;;1.20;;
10061;SDS011;5070;52.382;5.270;2022-07-11T00:59:47;3.40;;;1.48;;
10061;SDS011;5070;52.382;5.270;2022-07-11T01:02:15;2.67;;;1.20;;
10061;SDS011;5070;52.382;5.270;2022-07-11T01:04:43;3.72;;;1.77;;
10061;SDS011;5070;52.382;5.270;2022-07-11T01:07:11;5.85;;;1.60;;
10061;SDS011;5070;52.382;5.270;2022-07-11T01:09:41;3.75;;;1.63;;
10061;SDS011;5070;52.382;5.270;2022-07-11T01:12:09;3.00;;;1.83;;
10061;SDS011;5070;52.382;5.270;2022-07-11T01:14:37;2.60;;;1.63;;
10061;SDS011;5070;52.382;5.270;2022-07-11T01:17:05;2.00;;;1.10;;
10061;SDS011;5070;52.382;5.270;2022-07-11T01:19:33;3.33;;;1.38;;
10061;SDS011;5070;52.382;5.270;2022-07-11T01:22:01;5.78;;;2.08;;
10061;SDS011;5070;52.382;5.270;2022-07-11T01:24:32;3.70;;;1.80;;
10061;SDS011;5070;52.382;5.270;2022-07-11T01:27:00;6.63;;;2.03;;
10061;SDS011;5070;52.382;5.270;2022-07-11T01:29:29;3.75;;;1.65;;
10061;SDS011;5070;52.382;5.270;2022-07-11T01:31:57;5.93;;;1.80;;
10061;SDS011;5070;52.382;5.270;2022-07-11T01:34:25;2.10;;;1.30;;
10061;SDS011;5070;52.382;5.270;2022-07-11T01:36:53;2.15;;;1.35;;
10061;SDS011;5070;52.382;5.270;2022-07-11T01:39:21;3.05;;;1.75;;
10061;SDS011;5070;52.382;5.270;2022-07-11T01:41:50;2.25;;;0.95;;
10061;SDS011;5070;52.382;5.270;2022-07-11T01:44:19;4.35;;;1.85;;
10061;SDS011;5070;52.382;5.270;2022-07-11T01:46:47;2.30;;;1.20;;
10061;SDS011;5070;52.382;5.270;2022-07-11T01:49:15;2.17;;;1.35;;
10061;SDS011;5070;52.382;5.270;2022-07-11T01:51:42;2.17;;;1.20;;
10061;SDS011;5070;52.382;5.270;2022-07-11T01:54:10;2.40;;;1.20;;
10061;SDS011;5070;52.382;5.270;2022-07-11T01:56:38;2.95;;;2.05;;
10061;SDS011;5070;52.382;5.270;2022-07-11T01:59:08;7.43;;;1.73;;
10061;SDS011;5070;52.382;5.270;2022-07-11T02:01:36;3.00;;;1.85;;
10061;SDS011;5070;52.382;5.270;2022-07-11T02:04:04;5.70;;;1.95;;
10061;SDS011;5070;52.382;5.270;2022-07-11T02:06:31;7.65;;;2.13;;
10061;SDS011;5070;52.382;5.270;2022-07-11T02:08:59;2.72;;;1.35;;
10061;SDS011;5070;52.382;5.270;2022-07-11T02:11:27;2.10;;;1.33;;
10061;SDS011;5070;52.382;5.270;2022-07-11T02:13:55;4.53;;;1.83;;
10061;SDS011;5070;52.382;5.270;2022-07-11T02:16:24;2.40;;;1.35;;
10061;SDS011;5070;52.382;5.270;2022-07-11T02:18:52;2.55;;;1.40;;
10061;SDS011;5070;52.382;5.270;2022-07-11T02:21:21;4.25;;;1.55;;
10061;SDS011;5070;52.382;5.270;2022-07-11T02:23:49;4.50;;;1.35;;
10061;SDS011;5070;52.382;5.270;2022-07-11T02:26:17;2.45;;;1.30;;
10061;SDS011;5070;52.382;5.270;2022-07-11T02:28:45;3.75;;;1.95;;
10061;SDS011;5070;52.382;5.270;2022-07-11T02:31:13;2.80;;;1.90;;
10061;SDS011;5070;52.382;5.270;2022-07-11T02:33:42;2.20;;;1.40;;
10061;SDS011;5070;52.382;5.270;2022-07-11T02:36:11;1.75;;;1.27;;
10061;SDS011;5070;52.382;5.270;2022-07-11T02:38:40;3.40;;;1.20;;
10061;SDS011;5070;52.382;5.270;2022-07-11T02:41:09;2.10;;;1.20;;
10061;SDS011;5070;52.382;5.270;2022-07-11T02:43:38;2.83;;;1.58;;
10061;SDS011;5070;52.382;5.270;2022-07-11T02:46:06;2.20;;;1.45;;
10061;SDS011;5070;52.382;5.270;2022-07-11T02:48:34;2.67;;;1.23;;
10061;SDS011;5070;52.382;5.270;2022-07-11T02:51:04;3.50;;;1.88;;
10061;SDS011;5070;52.382;5.270;2022-07-11T02:53:32;2.10;;;1.55;;
10061;SDS011;5070;52.382;5.270;2022-07-11T02:56:00;1.90;;;1.30;;
10061;SDS011;5070;52.382;5.270;2022-07-11T02:58:28;8.23;;;1.88;;
10061;SDS011;5070;52.382;5.270;2022-07-11T03:00:55;2.50;;;1.70;;
10061;SDS011;5070;52.382;5.270;2022-07-11T03:03:23;4.53;;;1.98;;
10061;SDS011;5070;52.382;5.270;2022-07-11T03:05:51;1.95;;;1.25;;
10061;SDS011;5070;52.382;5.270;2022-07-11T03:08:21;4.75;;;1.45;;
10061;SDS011;5070;52.382;5.270;2022-07-11T03:10:49;1.95;;;1.13;;
10061;SDS011;5070;52.382;5.270;2022-07-11T03:13:17;1.95;;;1.38;;
10061;SDS011;5070;52.382;5.270;2022-07-11T03:15:45;2.63;;;1.65;;
10061;SDS011;5070;52.382;5.270;2022-07-11T03:18:13;4.47;;;1.80;;
10061;SDS011;5070;52.382;5.270;2022-07-11T03:20:41;6.55;;;1.40;;
10061;SDS011;5070;52.382;5.270;2022-07-11T03:23:08;2.35;;;1.08;;
10061;SDS011;5070;52.382;5.270;2022-07-11T03:25:38;6.22;;;1.27;;
10061;SDS011;5070;52.382;5.270;2022-07-11T03:28:06;1.90;;;1.35;;
10061;SDS011;5070;52.382;5.270;2022-07-11T03:30:34;2.70;;;1.30;;
10061;SDS011;5070;52.382;5.270;2022-07-11T03:33:02;3.40;;;1.77;;
10061;SDS011;5070;52.382;5.270;2022-07-11T03:35:30;3.33;;;2.17;;
10061;SDS011;5070;52.382;5.270;2022-07-11T03:38:10;2.22;;;1.55;;
10061;SDS011;5070;52.382;5.270;2022-07-11T03:40:40;2.10;;;1.40;;
10061;SDS011;5070;52.382;5.270;2022-07-11T03:43:08;2.40;;;1.30;;
10061;SDS011;5070;52.382;5.270;2022-07-11T03:45:36;1.63;;;1.02;;
10061;SDS011;5070;52.382;5.270;2022-07-11T03:48:04;4.70;;;2.38;;
10061;SDS011;5070;52.382;5.270;2022-07-11T03:50:33;3.08;;;2.58;;
10061;SDS011;5070;52.382;5.270;2022-07-11T03:53:01;3.55;;;2.15;;
10061;SDS011;5070;52.382;5.270;2022-07-11T03:55:30;2.40;;;1.13;;
10061;SDS011;5070;52.382;5.270;2022-07-11T03:57:59;1.88;;;1.27;;
10061;SDS011;5070;52.382;5.270;2022-07-11T04:00:27;3.60;;;1.35;;
10061;SDS011;5070;52.382;5.270;2022-07-11T04:02:55;2.65;;;2.30;;
10061;SDS011;5070;52.382;5.270;2022-07-11T04:05:23;2.80;;;1.75;;
10061;SDS011;5070;52.382;5.270;2022-07-11T04:07:51;2.05;;;1.35;;
10061;SDS011;5070;52.382;5.270;2022-07-11T04:10:19;1.50;;;0.80;;
10061;SDS011;5070;52.382;5.270;2022-07-11T04:12:47;3.80;;;2.35;;
10061;SDS011;5070;52.382;5.270;2022-07-11T04:15:16;2.78;;;1.25;;
10061;SDS011;5070;52.382;5.270;2022-07-11T04:17:47;2.00;;;1.42;;
10061;SDS011;5070;52.382;5.270;2022-07-11T04:20:15;3.25;;;1.45;;
10061;SDS011;5070;52.382;5.270;2022-07-11T04:22:43;1.75;;;1.02;;
10061;SDS011;5070;52.382;5.270;2022-07-11T04:25:10;4.65;;;1.67;;
10061;SDS011;5070;52.382;5.270;2022-07-11T04:27:39;3.45;;;1.50;;
10061;SDS011;5070;52.382;5.270;2022-07-11T04:30:07;2.53;;;1.35;;
10061;SDS011;5070;52.382;5.270;2022-07-11T04:32:37;2.40;;;0.80;;
10061;SDS011;5070;52.382;5.270;2022-07-11T04:35:07;2.08;;;1.30;;
10061;SDS011;5070;52.382;5.270;2022-07-11T04:37:35;3.53;;;1.40;;
10061;SDS011;5070;52.382;5.270;2022-07-11T04:40:04;1.85;;;1.27;;
10061;SDS011;5070;52.382;5.270;2022-07-11T04:42:39;6.00;;;1.58;;
10061;SDS011;5070;52.382;5.270;2022-07-11T04:45:07;2.13;;;1.13;;
10061;SDS011;5070;52.382;5.270;2022-07-11T04:47:37;6.60;;;1.00;;
10061;SDS011;5070;52.382;5.270;2022-07-11T04:50:06;1.75;;;1.30;;
10061;SDS011;5070;52.382;5.270;2022-07-11T04:52:38;2.63;;;1.67;;
10061;SDS011;5070;52.382;5.270;2022-07-11T04:55:08;2.22;;;1.10;;
10061;SDS011;5070;52.382;5.270;2022-07-11T04:57:36;1.58;;;0.77;;
10061;SDS011;5070;52.382;5.270;2022-07-11T05:00:05;2.40;;;1.10;;
10061;SDS011;5070;52.382;5.270;2022-07-11T05:02:34;3.00;;;1.33;;
10061;SDS011;5070;52.382;5.270;2022-07-11T05:05:03;1.70;;;1.00;;
10061;SDS011;5070;52.382;5.270;2022-07-11T05:07:32;6.30;;;1.83;;
10061;SDS011;5070;52.382;5.270;2022-07-11T05:10:00;7.00;;;1.90;;
10061;SDS011;5070;52.382;5.270;2022-07-11T05:12:28;1.60;;;0.90;;
10061;SDS011;5070;52.382;5.270;2022-07-11T05:14:56;2.03;;;1.23;;
10061;SDS011;5070;52.382;5.270;2022-07-11T05:17:25;1.98;;;1.00;;
10061;SDS011;5070;52.382;5.270;2022-07-11T05:19:53;2.63;;;0.90;;
10061;SDS011;5070;52.382;5.270;2022-07-11T05:22:22;2.90;;;1.52;;
10061;SDS011;5070;52.382;5.270;2022-07-11T05:24:51;2.03;;;1.15;;
10061;SDS011;5070;52.382;5.270;2022-07-11T05:27:19;2.10;;;1.00;;
10061;SDS011;5070;52.382;5.270;2022-07-11T05:29:47;1.67;;;0.82;;
10061;SDS011;5070;52.382;5.270;2022-07-11T05:32:15;2.17;;;1.00;;
10061;SDS011;5070;52.382;5.270;2022-07-11T05:34:43;2.25;;;1.23;;
10061;SDS011;5070;52.382;5.270;2022-07-11T05:37:11;2.95;;;1.05;;
10061;SDS011;5070;52.382;5.270;2022-07-11T05:39:40;2.38;;;1.45;;
10061;SDS011;5070;52.382;5.270;2022-07-11T05:42:08;1.92;;;1.17;;
10061;SDS011;5070;52.382;5.270;2022-07-11T05:44:36;2.78;;;1.35;;
10061;SDS011;5070;52.382;5.270;2022-07-11T05:47:05;2.38;;;1.25;;
10061;SDS011;5070;52.382;5.270;2022-07-11T05:49:35;2.05;;;1.23;;
10061;SDS011;5070;52.382;5.270;2022-07-11T05:52:03;1.95;;;1.00;;
10061;SDS011;5070;52.382;5.270;2022-07-11T05:54:32;1.73;;;1.10;;
10061;SDS011;5070;52.382;5.270;2022-07-11T05:57:01;1.52;;;0.80;;
10061;SDS011;5070;52.382;5.270;2022-07-11T05:59:31;1.70;;;1.17;;
10061;SDS011;5070;52.382;5.270;2022-07-11T06:02:01;1.85;;;0.85;;
10061;SDS011;5070;52.382;5.270;2022-07-11T06:04:31;3.95;;;1.40;;
10061;SDS011;5070;52.382;5.270;2022-07-11T06:07:03;9.00;;;1.08;;
10061;SDS011;5070;52.382;5.270;2022-07-11T06:09:34;1.73;;;0.95;;
10061;SDS011;5070;52.382;5.270;2022-07-11T06:12:02;2.30;;;1.00;;
10061;SDS011;5070;52.382;5.270;2022-07-11T06:14:34;1.85;;;1.05;;
10061;SDS011;5070;52.382;5.270;2022-07-11T06:17:02;1.90;;;1.02;;
10061;SDS011;5070;52.382;5.270;2022-07-11T06:19:35;4.55;;;1.30;;
10061;SDS011;5070;52.382;5.270;2022-07-11T06:22:03;1.70;;;0.80;;
10061;SDS011;5070;52.382;5.270;2022-07-11T06:24:31;1.58;;;0.80;;
10061;SDS011;5070;52.382;5.270;2022-07-11T06:26:59;1.80;;;0.90;;
10061;SDS011;5070;52.382;5.270;2022-07-11T06:29:29;1.88;;;1.05;;
10061;SDS011;5070;52.382;5.270;2022-07-11T06:31:57;4.15;;;1.42;;
10061;SDS011;5070;52.382;5.270;2022-07-11T06:34:25;1.80;;;1.40;;
10061;SDS011;5070;52.382;5.270;2022-07-11T06:36:52;1.50;;;0.90;;
10061;SDS011;5070;52.382;5.270;2022-07-11T06:39:20;2.00;;;0.82;;
10061;SDS011;5070;52.382;5.270;2022-07-11T06:41:48;2.65;;;1.15;;
10061;SDS011;5070;52.382;5.270;2022-07-11T06:44:17;2.13;;;0.80;;
10061;SDS011;5070;52.382;5.270;2022-07-11T06:46:54;1.73;;;0.90;;
10061;SDS011;5070;52.382;5.270;2022-07-11T06:49:22;1.95;;;1.30;;
10061;SDS011;5070;52.382;5.270;2022-07-11T06:51:50;2.17;;;0.90;;
10061;SDS011;5070;52.382;5.270;2022-07-11T06:54:18;4.07;;;1.38;;
10061;SDS011;5070;52.382;5.270;2022-07-11T06:56:46;1.63;;;0.90;;
10061;SDS011;5070;52.382;5.270;2022-07-11T06:59:14;5.13;;;1.10;;
10061;SDS011;5070;52.382;5.270;2022-07-11T07:01:42;2.40;;;1.10;;
10061;SDS011;5070;52.382;5.270;2022-07-11T07:04:11;1.70;;;0.90;;
10061;SDS011;5070;52.382;5.270;2022-07-11T07:06:39;2.47;;;1.23;;
10061;SDS011;5070;52.382;5.270;2022-07-11T07:09:07;1.90;;;1.08;;
10061;SDS011;5070;52.382;5.270;2022-07-11T07:11:35;2.10;;;1.00;;
10061;SDS011;5070;52.382;5.270;2022-07-11T07:14:02;1.92;;;0.90;;
10061;SDS011;5070;52.382;5.270;2022-07-11T07:16:30;1.50;;;0.88;;
10061;SDS011;5070;52.382;5.270;2022-07-11T07:18:58;1.70;;;0.77;;
10061;SDS011;5070;52.382;5.270;2022-07-11T07:21:28;1.50;;;0.80;;
10061;SDS011;5070;52.382;5.270;2022-07-11T07:23:56;2.75;;;1.23;;
10061;SDS011;5070;52.382;5.270;2022-07-11T07:26:24;1.50;;;0.80;;
10061;SDS011;5070;52.382;5.270;2022-07-11T07:28:52;1.60;;;0.80;;
10061;SDS011;5070;52.382;5.270;2022-07-11T07:31:24;1.80;;;1.20;;
10061;SDS011;5070;52.382;5.270;2022-07-11T07:33:52;1.40;;;0.80;;
10061;SDS011;5070;52.382;5.270;2022-07-11T07:36:20;1.50;;;0.80;;
10061;SDS011;5070;52.382;5.270;2022-07-11T07:38:52;2.08;;;1.00;;
10061;SDS011;5070;52.382;5.270;2022-07-11T07:41:20;1.50;;;0.70;;
10061;SDS011;5070;52.382;5.270;2022-07-11T07:43:47;1.40;;;0.70;;
10061;SDS011;5070;52.382;5.270;2022-07-11T07:46:16;1.40;;;0.80;;
10061;SDS011;5070;52.382;5.270;2022-07-11T07:48:45;1.88;;;0.93;;
10061;SDS011;5070;52.382;5.270;2022-07-11T07:51:13;1.85;;;1.10;;
10061;SDS011;5070;52.382;5.270;2022-07-11T07:53:41;3.22;;;0.90;;
10061;SDS011;5070;52.382;5.270;2022-07-11T07:56:10;1.50;;;0.70;;
10061;SDS011;5070;52.382;5.270;2022-07-11T07:58:38;1.85;;;0.90;;
10061;SDS011;5070;52.382;5.270;2022-07-11T08:01:06;1.70;;;0.80;;
10061;SDS011;5070;52.382;5.270;2022-07-11T08:03:52;1.40;;;0.70;;
10061;SDS011;5070;52.382;5.270;2022-07-11T08:06:21;1.80;;;1.05;;
10061;SDS011;5070;52.382;5.270;2022-07-11T08:08:49;3.00;;;1.00;;
10061;SDS011;5070;52.382;5.270;2022-07-11T08:11:18;1.90;;;1.02;;
10061;SDS011;5070;52.382;5.270;2022-07-11T08:13:57;1.50;;;0.90;;
10061;SDS011;5070;52.382;5.270;2022-07-11T08:16:25;1.70;;;1.33;;
10061;SDS011;5070;52.382;5.270;2022-07-11T08:18:56;9.55;;;2.03;;
10061;SDS011;5070;52.382;5.270;2022-07-11T08:21:24;1.70;;;1.10;;
10061;SDS011;5070;52.382;5.270;2022-07-11T08:23:53;1.40;;;0.70;;
10061;SDS011;5070;52.382;5.270;2022-07-11T08:26:22;4.47;;;1.17;;
10061;SDS011;5070;52.382;5.270;2022-07-11T08:28:58;1.70;;;1.00;;
10061;SDS011;5070;52.382;5.270;2022-07-11T08:31:26;2.08;;;1.00;;
10061;SDS011;5070;52.382;5.270;2022-07-11T08:33:54;3.25;;;0.80;;
10061;SDS011;5070;52.382;5.270;2022-07-11T08:36:28;1.40;;;0.73;;
10061;SDS011;5070;52.382;5.270;2022-07-11T08:38:58;2.13;;;1.27;;
10061;SDS011;5070;52.382;5.270;2022-07-11T08:41:28;1.40;;;0.73;;
10061;SDS011;5070;52.382;5.270;2022-07-11T08:43:56;1.40;;;0.70;;
10061;SDS011;5070;52.382;5.270;2022-07-11T08:46:25;1.83;;;1.00;;
10061;SDS011;5070;52.382;5.270;2022-07-11T08:48:54;1.67;;;0.98;;
10061;SDS011;5070;52.382;5.270;2022-07-11T08:51:24;2.25;;;1.30;;
10061;SDS011;5070;52.382;5.270;2022-07-11T08:53:53;2.22;;;1.00;;
10061;SDS011;5070;52.382;5.270;2022-07-11T08:56:32;1.60;;;0.85;;
10061;SDS011;5070;52.382;5.270;2022-07-11T08:59:00;1.63;;;0.90;;
10061;SDS011;5070;52.382;5.270;2022-07-11T09:01:29;2.47;;;1.20;;
10061;SDS011;5070;52.382;5.270;2022-07-11T09:03:59;1.55;;;0.88;;
10061;SDS011;5070;52.382;5.270;2022-07-11T09:06:28;1.80;;;0.95;;
10061;SDS011;5070;52.382;5.270;2022-07-11T09:08:57;1.60;;;0.88;;
10061;SDS011;5070;52.382;5.270;2022-07-11T09:11:26;1.85;;;0.85;;
10061;SDS011;5070;52.382;5.270;2022-07-11T09:13:55;1.40;;;0.70;;
10061;SDS011;5070;52.382;5.270;2022-07-11T09:16:23;1.60;;;0.90;;
10061;SDS011;5070;52.382;5.270;2022-07-11T09:18:58;2.15;;;1.00;;
10061;SDS011;5070;52.382;5.270;2022-07-11T09:21:26;4.18;;;0.80;;
10061;SDS011;5070;52.382;5.270;2022-07-11T09:24:11;2.42;;;0.90;;
10061;SDS011;5070;52.382;5.270;2022-07-11T09:26:57;2.03;;;0.95;;
10061;SDS011;5070;52.382;5.270;2022-07-11T09:29:26;1.65;;;0.80;;
10061;SDS011;5070;52.382;5.270;2022-07-11T09:31:54;1.40;;;0.65;;
10061;SDS011;5070;52.382;5.270;2022-07-11T09:34:23;8.63;;;1.08;;
10061;SDS011;5070;52.382;5.270;2022-07-11T09:36:54;7.38;;;1.52;;
10061;SDS011;5070;52.382;5.270;2022-07-11T09:39:23;4.72;;;1.00;;
10061;SDS011;5070;52.382;5.270;2022-07-11T09:41:52;1.70;;;1.00;;
10061;SDS011;5070;52.382;5.270;2022-07-11T09:44:20;2.03;;;1.02;;
10061;SDS011;5070;52.382;5.270;2022-07-11T09:46:55;3.17;;;1.10;;
10061;SDS011;5070;52.382;5.270;2022-07-11T09:49:30;3.95;;;1.08;;
10061;SDS011;5070;52.382;5.270;2022-07-11T09:52:09;7.38;;;1.42;;
10061;SDS011;5070;52.382;5.270;2022-07-11T09:54:56;14.27;;;4.18;;
10061;SDS011;5070;52.382;5.270;2022-07-11T09:57:30;30.63;;;3.65;;
10061;SDS011;5070;52.382;5.270;2022-07-11T09:59:59;2.65;;;2.05;;
10061;SDS011;5070;52.382;5.270;2022-07-11T10:02:31;3.05;;;1.90;;
10061;SDS011;5070;52.382;5.270;2022-07-11T10:05:00;4.65;;;1.88;;
10061;SDS011;5070;52.382;5.270;2022-07-11T10:07:31;9.88;;;1.88;;
10061;SDS011;5070;52.382;5.270;2022-07-11T10:09:59;2.83;;;2.55;;
10061;SDS011;5070;52.382;5.270;2022-07-11T10:12:28;4.40;;;2.45;;
10061;SDS011;5070;52.382;5.270;2022-07-11T10:15:00;6.85;;;1.73;;
10061;SDS011;5070;52.382;5.270;2022-07-11T10:17:33;2.80;;;1.50;;
10061;SDS011;5070;52.382;5.270;2022-07-11T10:20:15;10.88;;;3.00;;
10061;SDS011;5070;52.382;5.270;2022-07-11T10:22:53;5.85;;;3.55;;
10061;SDS011;5070;52.382;5.270;2022-07-11T10:25:28;5.07;;;3.72;;
10061;SDS011;5070;52.382;5.270;2022-07-11T10:28:12;4.60;;;2.90;;
10061;SDS011;5070;52.382;5.270;2022-07-11T10:30:47;5.43;;;3.13;;
10061;SDS011;5070;52.382;5.270;2022-07-11T10:33:20;2.70;;;1.50;;
10061;SDS011;5070;52.382;5.270;2022-07-11T10:35:48;3.80;;;3.53;;
10061;SDS011;5070;52.382;5.270;2022-07-11T10:38:17;5.75;;;2.20;;
10061;SDS011;5070;52.382;5.270;2022-07-11T10:40:47;3.55;;;1.60;;
10061;SDS011;5070;52.382;5.270;2022-07-11T10:43:31;3.20;;;1.50;;
10061;SDS011;5070;52.382;5.270;2022-07-11T10:46:03;2.20;;;1.52;;
10061;SDS011;5070;52.382;5.270;2022-07-11T10:48:34;2.72;;;1.20;;
10061;SDS011;5070;52.382;5.270;2022-07-11T10:51:22;2.20;;;1.23;;
10061;SDS011;5070;52.382;5.270;2022-07-11T10:53:54;2.00;;;1.73;;
10061;SDS011;5070;52.382;5.270;2022-07-11T10:56:46;10.65;;;1.63;;
10061;SDS011;5070;52.382;5.270;2022-07-11T10:59:23;5.88;;;1.45;;
10061;SDS011;5070;52.382;5.270;2022-07-11T11:02:01;2.65;;;1.60;;
10061;SDS011;5070;52.382;5.270;2022-07-11T11:04:51;12.75;;;1.42;;
10061;SDS011;5070;52.382;5.270;2022-07-11T11:07:34;1.70;;;1.10;;
10061;SDS011;5070;52.382;5.270;2022-07-11T11:13:15;2.97;;;1.20;;
10061;SDS011;5070;52.382;5.270;2022-07-11T11:15:49;1.80;;;0.93;;
10061;SDS011;5070;52.382;5.270;2022-07-11T11:18:29;2.00;;;1.20;;
10061;SDS011;5070;52.382;5.270;2022-07-11T11:21:16;1.60;;;0.90;;
10061;SDS011;5070;52.382;5.270;2022-07-11T11:24:05;2.03;;;0.98;;
10061;SDS011;5070;52.382;5.270;2022-07-11T11:26:50;1.73;;;1.02;;
10061;SDS011;5070;52.382;5.270;2022-07-11T11:29:25;6.70;;;1.45;;
10061;SDS011;5070;52.382;5.270;2022-07-11T11:31:56;2.53;;;1.15;;
10061;SDS011;5070;52.382;5.270;2022-07-11T11:34:26;1.92;;;1.13;;
10061;SDS011;5070;52.382;5.270;2022-07-11T11:36:56;1.58;;;0.90;;
10061;SDS011;5070;52.382;5.270;2022-07-11T11:39:32;1.90;;;0.95;;
10061;SDS011;5070;52.382;5.270;2022-07-11T11:42:08;4.05;;;0.93;;
10061;SDS011;5070;52.382;5.270;2022-07-11T11:44:53;1.58;;;0.95;;
10061;SDS011;5070;52.382;5.270;2022-07-11T11:47:25;1.60;;;0.80;;
10061;SDS011;5070;52.382;5.270;2022-07-11T11:49:56;2.05;;;1.17;;
10061;SDS011;5070;52.382;5.270;2022-07-11T11:52:27;3.05;;;1.52;;
10061;SDS011;5070;52.382;5.270;2022-07-11T11:54:56;2.00;;;1.15;;
10061;SDS011;5070;52.382;5.270;2022-07-11T11:57:27;2.63;;;1.10;;
10061;SDS011;5070;52.382;5.270;2022-07-11T11:59:55;2.58;;;1.75;;
10061;SDS011;5070;52.382;5.270;2022-07-11T12:02:25;2.10;;;1.45;;
10061;SDS011;5070;52.382;5.270;2022-07-11T12:04:57;2.42;;;1.02;;
10061;SDS011;5070;52.382;5.270;2022-07-11T12:07:32;3.65;;;1.30;;
10061;SDS011;5070;52.382;5.270;2022-07-11T12:10:00;2.85;;;1.05;;
10061;SDS011;5070;52.382;5.270;2022-07-11T12:12:32;4.78;;;1.33;;
10061;SDS011;5070;52.382;5.270;2022-07-11T12:15:24;1.90;;;1.20;;
10061;SDS011;5070;52.382;5.270;2022-07-11T12:17:56;3.90;;;1.15;;
10061;SDS011;5070;52.382;5.270;2022-07-11T12:20:43;3.17;;;1.40;;
10061;SDS011;5070;52.382;5.270;2022-07-11T12:23:15;3.65;;;1.10;;
10061;SDS011;5070;52.382;5.270;2022-07-11T12:25:47;1.95;;;1.15;;
10061;SDS011;5070;52.382;5.270;2022-07-11T12:28:20;1.77;;;1.10;;
10061;SDS011;5070;52.382;5.270;2022-07-11T12:30:53;1.70;;;0.80;;
10061;SDS011;5070;52.382;5.270;2022-07-11T12:33:23;1.60;;;0.98;;
10061;SDS011;5070;52.382;5.270;2022-07-11T12:35:52;6.80;;;1.23;;
10061;SDS011;5070;52.382;5.270;2022-07-11T12:38:23;1.50;;;1.00;;
10061;SDS011;5070;52.382;5.270;2022-07-11T12:41:12;2.78;;;0.98;;
10061;SDS011;5070;52.382;5.270;2022-07-11T12:47:23;2.38;;;1.20;;
10061;SDS011;5070;52.382;5.270;2022-07-11T12:49:52;2.25;;;0.95;;
10061;SDS011;5070;52.382;5.270;2022-07-11T12:52:20;2.25;;;1.02;;
10061;SDS011;5070;52.382;5.270;2022-07-11T12:54:49;2.00;;;1.10;;
10061;SDS011;5070;52.382;5.270;2022-07-11T12:57:26;4.97;;;1.50;;
10061;SDS011;5070;52.382;5.270;2022-07-11T12:59:54;3.15;;;0.95;;
10061;SDS011;5070;52.382;5.270;2022-07-11T13:02:25;1.50;;;0.80;;
10061;SDS011;5070;52.382;5.270;2022-07-11T13:04:53;1.60;;;0.90;;
10061;SDS011;5070;52.382;5.270;2022-07-11T13:07:25;2.55;;;0.80;;
10061;SDS011;5070;52.382;5.270;2022-07-11T13:10:16;1.92;;;1.20;;
10061;SDS011;5070;52.382;5.270;2022-07-11T13:12:46;1.77;;;1.00;;
10061;SDS011;5070;52.382;5.270;2022-07-11T13:15:15;1.50;;;0.70;;
10061;SDS011;5070;52.382;5.270;2022-07-11T13:17:45;2.03;;;1.15;;
10061;SDS011;5070;52.382;5.270;2022-07-11T13:20:19;1.58;;;0.90;;
10061;SDS011;5070;52.382;5.270;2022-07-11T13:22:49;1.73;;;0.82;;
10061;SDS011;5070;52.382;5.270;2022-07-11T13:25:19;1.50;;;0.77;;
10061;SDS011;5070;52.382;5.270;2022-07-11T13:27:51;2.55;;;1.20;;
10061;SDS011;5070;52.382;5.270;2022-07-11T13:30:21;2.50;;;1.10;;
10061;SDS011;5070;52.382;5.270;2022-07-11T13:33:13;1.80;;;1.25;;
10061;SDS011;5070;52.382;5.270;2022-07-11T13:35:42;6.07;;;1.15;;
10061;SDS011;5070;52.382;5.270;2022-07-11T13:38:10;3.65;;;1.10;;
10061;SDS011;5070;52.382;5.270;2022-07-11T13:40:42;1.65;;;1.00;;
10061;SDS011;5070;52.382;5.270;2022-07-11T13:43:10;2.60;;;0.80;;
10061;SDS011;5070;52.382;5.270;2022-07-11T13:45:40;1.70;;;0.90;;
10061;SDS011;5070;52.382;5.270;2022-07-11T13:48:09;2.80;;;1.15;;
10061;SDS011;5070;52.382;5.270;2022-07-11T13:50:38;4.30;;;1.08;;
10061;SDS011;5070;52.382;5.270;2022-07-11T13:53:06;1.40;;;0.70;;
10061;SDS011;5070;52.382;5.270;2022-07-11T13:55:34;3.50;;;1.00;;
10061;SDS011;5070;52.382;5.270;2022-07-11T13:58:03;1.70;;;0.73;;
10061;SDS011;5070;52.382;5.270;2022-07-11T14:00:55;1.40;;;0.70;;
10061;SDS011;5070;52.382;5.270;2022-07-11T14:03:23;1.55;;;0.90;;
10061;SDS011;5070;52.382;5.270;2022-07-11T14:05:51;1.70;;;1.15;;
10061;SDS011;5070;52.382;5.270;2022-07-11T14:08:19;3.55;;;1.05;;
10061;SDS011;5070;52.382;5.270;2022-07-11T14:10:47;3.25;;;1.40;;
10061;SDS011;5070;52.382;5.270;2022-07-11T14:13:17;3.15;;;1.05;;
10061;SDS011;5070;52.382;5.270;2022-07-11T14:15:49;1.50;;;0.90;;
10061;SDS011;5070;52.382;5.270;2022-07-11T14:18:18;1.40;;;0.80;;
10061;SDS011;5070;52.382;5.270;2022-07-11T14:20:46;2.92;;;1.05;;
10061;SDS011;5070;52.382;5.270;2022-07-11T14:23:14;1.92;;;0.90;;
10061;SDS011;5070;52.382;5.270;2022-07-11T14:25:42;1.58;;;0.90;;
10061;SDS011;5070;52.382;5.270;2022-07-11T14:28:12;1.40;;;0.70;;
10061;SDS011;5070;52.382;5.270;2022-07-11T14:30:49;1.50;;;0.80;;
10061;SDS011;5070;52.382;5.270;2022-07-11T14:33:19;1.80;;;1.00;;
10061;SDS011;5070;52.382;5.270;2022-07-11T14:35:48;2.65;;;1.10;;
10061;SDS011;5070;52.382;5.270;2022-07-11T14:38:16;1.83;;;0.85;;
10061;SDS011;5070;52.382;5.270;2022-07-11T14:40:44;1.95;;;0.88;;
10061;SDS011;5070;52.382;5.270;2022-07-11T14:43:12;1.40;;;0.70;;
10061;SDS011;5070;52.382;5.270;2022-07-11T14:45:40;1.80;;;0.80;;
10061;SDS011;5070;52.382;5.270;2022-07-11T14:48:10;2.25;;;1.00;;
10061;SDS011;5070;52.382;5.270;2022-07-11T14:50:39;2.03;;;1.13;;
10061;SDS011;5070;52.382;5.270;2022-07-11T14:53:07;1.73;;;0.85;;
10061;SDS011;5070;52.382;5.270;2022-07-11T14:55:35;1.85;;;1.25;;
10061;SDS011;5070;52.382;5.270;2022-07-11T14:58:03;1.88;;;1.05;;
10061;SDS011;5070;52.382;5.270;2022-07-11T15:00:31;1.50;;;0.90;;
10061;SDS011;5070;52.382;5.270;2022-07-11T15:03:08;2.28;;;1.20;;
10061;SDS011;5070;52.382;5.270;2022-07-11T15:05:54;2.13;;;0.80;;
10061;SDS011;5070;52.382;5.270;2022-07-11T15:08:22;1.40;;;0.70;;
10061;SDS011;5070;52.382;5.270;2022-07-11T15:11:09;8.07;;;1.17;;
10061;SDS011;5070;52.382;5.270;2022-07-11T15:13:55;1.67;;;0.80;;
10061;SDS011;5070;52.382;5.270;2022-07-11T15:16:23;2.30;;;1.25;;
10061;SDS011;5070;52.382;5.270;2022-07-11T15:18:54;1.85;;;1.10;;
10061;SDS011;5070;52.382;5.270;2022-07-11T15:21:22;1.75;;;0.98;;
10061;SDS011;5070;52.382;5.270;2022-07-11T15:23:50;2.40;;;1.27;;
10061;SDS011;5070;52.382;5.270;2022-07-11T15:26:18;2.03;;;1.20;;